Time;durP1;ratioP1;P1;durP2;ratioP2;P2;SDS_P1;SDS_P2;PMS_P1;PMS_P2;Temp;Humidity;BMP_temperature;BMP_pressure;BME280_temperature;BME280_humidity;BME280_pressure;Samples;Min_cycle;Max_cycle;Signal;HPM_P1;HPM_P2
2023/11/21 00:00:26;;;;;;;7.53;2.60;;;8.20;99.90;;;;;;5082532;28;20313;-70
2023/11/21 00:02:52;;;;;;;8.77;3.13;;;;;;;;;;5082842;28;20115;-70
2023/11/21 00:05:18;;;;;;;7.60;3.20;;;8.00;99.90;;;;;;5082785;28;20044;-70
2023/11/21 00:07:44;;;;;;;6.30;3.80;;;;;;;;;;5082652;28;20028;-71
2023/11/21 00:10:11;;;;;;;11.90;4.50;;;8.00;95.10;;;;;;5082743;28;20031;-71
2023/11/21 00:12:37;;;;;;;9.32;3.03;;;8.00;95.10;;;;;;5082357;28;20338;-72
2023/11/21 00:15:05;;;;;;;8.20;3.53;;;8.40;99.90;;;;;;5082864;28;20020;-71
2023/11/21 00:17:31;;;;;;;5.90;3.22;;;;;;;;;;5082629;28;20023;-69
2023/11/21 00:19:56;;;;;;;9.75;3.63;;;8.00;99.90;;;;;;5082654;28;20020;-71
2023/11/21 00:22:22;;;;;;;13.35;3.63;;;;;;;;;;5081266;28;20058;-71
2023/11/21 00:24:48;;;;;;;10.43;3.70;;;;;;;;;;5082227;28;20025;-72
2023/11/21 00:27:15;;;;;;;7.30;3.05;;;;;;;;;;5082347;28;20032;-71
2023/11/21 00:29:41;;;;;;;7.85;3.60;;;7.80;96.80;;;;;;5081207;28;20024;-71
2023/11/21 00:32:06;;;;;;;5.80;3.67;;;8.40;99.90;;;;;;5082404;28;20082;-71
2023/11/21 00:34:32;;;;;;;6.55;3.88;;;7.70;97.80;;;;;;5082146;28;20016;-70
2023/11/21 00:36:58;;;;;;;9.30;5.30;;;7.70;99.90;;;;;;5081054;28;20024;-73
2023/11/21 00:39:25;;;;;;;12.32;4.97;;;7.70;99.90;;;;;;5082164;28;20016;-73
2023/11/21 00:41:52;;;;;;;9.20;5.28;;;7.70;99.90;;;;;;5082100;28;20020;-69
2023/11/21 00:44:17;;;;;;;11.07;5.90;;;7.70;99.90;;;;;;5080858;28;20012;-71
2023/11/21 00:46:43;;;;;;;15.18;5.88;;;7.80;99.90;;;;;;5081730;28;20247;-71
2023/11/21 00:49:08;;;;;;;11.55;6.32;;;7.60;99.90;;;;;;5081969;28;20360;-71
2023/11/21 00:51:35;;;;;;;12.63;4.80;;;;;;;;;;5081430;28;20033;-69
2023/11/21 00:54:02;;;;;;;11.38;5.15;;;7.70;99.90;;;;;;5081829;28;20046;-70
2023/11/21 00:56:28;;;;;;;14.90;5.97;;;;;;;;;;5081111;28;20016;-70
2023/11/21 00:58:54;;;;;;;14.45;5.68;;;7.50;99.90;;;;;;5081709;28;20013;-70
2023/11/21 01:01:21;;;;;;;11.68;5.65;;;7.50;96.90;;;;;;5081544;28;20024;-71
2023/11/21 01:03:47;;;;;;;9.88;5.30;;;7.70;99.90;;;;;;5081503;28;20013;-70
2023/11/21 01:06:13;;;;;;;9.13;4.60;;;7.40;99.90;;;;;;5081676;28;20247;-69
2023/11/21 01:08:39;;;;;;;11.07;4.78;;;7.60;99.90;;;;;;5081444;28;20026;-70
2023/11/21 01:11:08;;;;;;;9.70;4.70;;;7.60;99.90;;;;;;5080798;28;20032;-69
2023/11/21 01:13:34;;;;;;;12.60;5.70;;;7.70;99.90;;;;;;5081450;28;20020;-70
2023/11/21 01:16:00;;;;;;;13.50;5.32;;;7.50;99.90;;;;;;5081451;28;20028;-70
2023/11/21 01:18:26;;;;;;;12.23;5.32;;;;;;;;;;5081433;28;20217;-70
2023/11/21 01:20:53;;;;;;;13.48;4.93;;;;;;;;;;5081056;28;20020;-69
2023/11/21 01:23:19;;;;;;;8.07;3.92;;;6.90;96.90;;;;;;5079898;28;20017;-70
2023/11/21 01:25:45;;;;;;;15.32;5.00;;;7.60;99.90;;;;;;5080823;28;20090;-69
2023/11/21 01:28:11;;;;;;;9.27;4.63;;;;;;;;;;5082107;28;20032;-71
2023/11/21 01:30:38;;;;;;;16.35;4.75;;;;;;;;;;5084349;28;20031;-72
2023/11/21 01:33:03;;;;;;;10.45;4.70;;;7.50;99.90;;;;;;5084208;28;20017;-72
2023/11/21 01:35:30;;;;;;;12.73;5.25;;;7.70;99.90;;;;;;5083861;28;20060;-72
2023/11/21 01:37:57;;;;;;;9.02;4.82;;;7.70;99.90;;;;;;5083975;28;20076;-73
2023/11/21 01:40:24;;;;;;;15.20;5.55;;;;;;;;;;5080288;28;20028;-72
2023/11/21 01:42:50;;;;;;;10.68;4.13;;;;;;;;;;5081149;28;20039;-72
2023/11/21 01:45:16;;;;;;;10.10;4.60;;;7.50;99.90;;;;;;5081087;28;20024;-72
2023/11/21 01:47:44;;;;;;;12.15;4.50;;;7.60;97.20;;;;;;5080982;28;20346;-71
2023/11/21 01:50:15;;;;;;;13.93;4.30;;;7.50;99.90;;;;;;5081025;28;20039;-72
2023/11/21 01:52:44;;;;;;;9.07;4.13;;;7.60;99.90;;;;;;5080837;28;20043;-71
2023/11/21 01:55:12;;;;;;;12.63;4.72;;;7.50;98.70;;;;;;5080830;28;20024;-71
2023/11/21 01:57:38;;;;;;;8.85;3.65;;;;;;;;;;5080394;28;20225;-71
2023/11/21 02:00:15;;;;;;;7.60;4.15;;;7.40;97.40;;;;;;5080406;28;20028;-72
2023/11/21 02:02:45;;;;;;;6.75;3.92;;;7.40;99.90;;;;;;5080830;28;20026;-71
2023/11/21 02:05:14;;;;;;;7.60;3.60;;;7.40;99.90;;;;;;5080468;28;20027;-72
2023/11/21 02:07:42;;;;;;;14.20;4.20;;;7.80;99.90;;;;;;5079710;28;20071;-72
2023/11/21 02:10:08;;;;;;;11.57;3.67;;;7.60;97.60;;;;;;5080608;28;20035;-72
2023/11/21 02:12:35;;;;;;;7.57;3.60;;;7.30;99.90;;;;;;5080323;28;20393;-72
2023/11/21 02:15:09;;;;;;;9.50;4.63;;;7.30;99.90;;;;;;5080387;28;20036;-72
2023/11/21 02:17:35;;;;;;;15.23;3.83;;;;;;;;;;5080347;28;20039;-72
2023/11/21 02:20:01;;;;;;;8.90;3.85;;;;;;;;;;5080212;28;20012;-71
2023/11/21 02:22:34;;;;;;;7.05;3.42;;;7.40;97.70;;;;;;5078174;28;20340;-71
2023/11/21 02:24:59;;;;;;;10.20;3.67;;;7.50;99.90;;;;;;5080069;28;20275;-72
2023/11/21 02:27:27;;;;;;;10.52;4.30;;;;;;;;;;5080210;28;20367;-71
2023/11/21 02:29:52;;;;;;;13.95;5.00;;;7.40;99.90;;;;;;5080185;28;20023;-71
2023/11/21 02:32:19;;;;;;;8.52;4.10;;;;;;;;;;5080114;28;20036;-71
2023/11/21 02:34:45;;;;;;;9.10;4.90;;;;;;;;;;5080243;28;20024;-71
2023/11/21 02:37:11;;;;;;;6.63;3.60;;;7.20;99.90;;;;;;5080272;28;20023;-71
2023/11/21 02:39:37;;;;;;;8.73;5.28;;;;;;;;;;5080172;28;20059;-70
2023/11/21 02:42:03;;;;;;;11.02;5.25;;;;;;;;;;5080269;28;20091;-70
2023/11/21 02:44:29;;;;;;;16.38;6.15;;;;;;;;;;5080330;28;20125;-71
2023/11/21 02:46:57;;;;;;;16.60;6.43;;;7.40;99.90;;;;;;5080266;28;20020;-71
2023/11/21 02:49:23;;;;;;;15.90;6.40;;;;;;;;;;5080268;28;20032;-70
2023/11/21 02:51:49;;;;;;;8.90;5.18;;;7.30;99.90;;;;;;5079788;28;20224;-70
2023/11/21 02:54:16;;;;;;;8.38;4.68;;;;;;;;;;5080017;28;20092;-69
2023/11/21 02:56:42;;;;;;;11.93;5.05;;;;;;;;;;5079983;28;20084;-70
2023/11/21 02:59:08;;;;;;;11.70;5.25;;;;;;;;;;5080003;28;20040;-70
2023/11/21 03:01:34;;;;;;;11.52;4.88;;;7.40;99.90;;;;;;5079750;28;20079;-72
2023/11/21 03:04:00;;;;;;;13.30;5.30;;;7.30;99.90;;;;;;5080125;28;20080;-72
2023/11/21 03:06:25;;;;;;;11.25;5.05;;;7.20;99.90;;;;;;5079995;28;20084;-72
2023/11/21 03:08:51;;;;;;;13.98;4.90;;;7.50;99.90;;;;;;5079854;28;20012;-72
2023/11/21 03:11:17;;;;;;;10.30;5.22;;;7.30;99.90;;;;;;5078394;28;20091;-72
2023/11/21 03:13:42;;;;;;;13.18;5.43;;;7.80;99.90;;;;;;5080261;28;20028;-71
2023/11/21 03:16:10;;;;;;;10.30;5.65;;;7.20;98.10;;;;;;5080054;28;20035;-72
2023/11/21 03:18:39;;;;;;;10.52;5.07;;;7.10;99.90;;;;;;5079893;28;20029;-72
2023/11/21 03:21:05;;;;;;;;;;;7.30;98.20;;;;;;5083887;28;20362;-71
2023/11/21 03:23:31;;;;;;;11.80;4.95;;;7.20;99.90;;;;;;5083384;28;20123;-71
2023/11/21 03:25:58;;;;;;;11.02;5.03;;;7.30;99.90;;;;;;5083413;28;20066;-71
2023/11/21 03:28:23;;;;;;;9.05;5.13;;;7.20;99.90;;;;;;5083680;28;20039;-71
2023/11/21 03:30:49;;;;;;;11.20;5.18;;;;;;;;;;5083639;28;20044;-71
2023/11/21 03:33:15;;;;;;;12.25;5.43;;;7.60;99.90;;;;;;5083812;28;20043;-73
2023/11/21 03:35:41;;;;;;;15.35;5.47;;;7.10;99.90;;;;;;5083610;28;20028;-73
2023/11/21 03:38:07;;;;;;;15.63;5.57;;;7.40;99.90;;;;;;5083393;28;20291;-72
2023/11/21 03:40:33;;;;;;;11.35;4.80;;;7.60;99.90;;;;;;5083452;28;20092;-73
2023/11/21 03:42:59;;;;;;;9.80;4.97;;;7.20;99.90;;;;;;5083497;28;20359;-73
2023/11/21 03:45:25;;;;;;;7.57;4.68;;;;;;;;;;5083373;28;20273;-73
2023/11/21 03:47:51;;;;;;;11.13;4.43;;;;;;;;;;5083378;28;20052;-74
2023/11/21 03:50:16;;;;;;;10.43;3.90;;;7.00;99.90;;;;;;5083137;28;20017;-73
2023/11/21 03:52:42;;;;;;;11.18;4.78;;;;;;;;;;5083056;28;20032;-72
2023/11/21 03:55:10;;;;;;;9.52;4.13;;;7.10;99.10;;;;;;5083031;28;20335;-72
2023/11/21 03:57:36;;;;;;;7.68;4.10;;;7.10;99.90;;;;;;5082927;28;20300;-72
2023/11/21 04:00:05;;;;;;;8.25;4.20;;;7.10;98.20;;;;;;5082742;28;20034;-73
2023/11/21 04:02:31;;;;;;;12.85;4.65;;;6.90;99.90;;;;;;5082918;28;20367;-73
2023/11/21 04:04:57;;;;;;;10.02;4.57;;;6.90;99.90;;;;;;5082587;28;20021;-72
2023/11/21 04:07:23;;;;;;;8.70;4.07;;;6.90;99.90;;;;;;5082792;28;20025;-72
2023/11/21 04:09:49;;;;;;;9.57;4.07;;;7.20;99.90;;;;;;5082585;28;20065;-72
2023/11/21 04:12:15;;;;;;;6.45;3.78;;;;;;;;;;5082479;28;20037;-74
2023/11/21 04:14:41;;;;;;;9.70;4.15;;;;;;;;;;5082478;28;20023;-72
2023/11/21 04:17:06;;;;;;;11.00;4.35;;;7.10;99.90;;;;;;5082385;28;20016;-73
2023/11/21 04:19:32;;;;;;;14.70;4.82;;;;;;;;;;5082448;28;20269;-72
2023/11/21 04:21:58;;;;;;;9.48;4.43;;;;;;;;;;5081425;28;20029;-73
2023/11/21 04:24:24;;;;;;;15.77;5.35;;;6.80;99.90;;;;;;5082290;28;20201;-72
2023/11/21 04:26:50;;;;;;;13.57;4.22;;;;;;;;;;5082213;28;20053;-73
2023/11/21 04:29:16;;;;;;;9.60;4.05;;;;;;;;;;5082007;28;20025;-73
2023/11/21 04:31:41;;;;;;;10.55;4.18;;;7.10;99.90;;;;;;5081357;28;20205;-72
2023/11/21 04:34:08;;;;;;;11.75;4.15;;;7.00;99.90;;;;;;5082211;28;20016;-73
2023/11/21 04:36:34;;;;;;;11.18;4.30;;;;;;;;;;5080715;28;20237;-73
2023/11/21 04:39:00;;;;;;;7.88;3.65;;;7.50;99.90;;;;;;5080659;28;20020;-70
2023/11/21 04:41:27;;;;;;;9.73;4.32;;;;;;;;;;5081792;28;20028;-70
2023/11/21 04:43:52;;;;;;;10.55;4.38;;;6.80;99.60;;;;;;5082076;28;20098;-72
2023/11/21 04:46:18;;;;;;;11.68;4.65;;;6.60;99.90;;;;;;5081666;28;20024;-71
2023/11/21 04:48:44;;;;;;;10.35;5.07;;;;;;;;;;5081940;28;20031;-70
2023/11/21 04:51:12;;;;;;;14.38;6.15;;;6.60;99.90;;;;;;5081585;28;20031;-70
2023/11/21 04:53:39;;;;;;;12.90;6.22;;;6.40;99.80;;;;;;5081858;28;20059;-70
2023/11/21 04:56:05;;;;;;;13.93;6.30;;;;;;;;;;5081911;28;20039;-70
2023/11/21 04:58:31;;;;;;;15.27;6.70;;;6.60;99.90;;;;;;5081747;28;20091;-70
2023/11/21 05:00:57;;;;;;;13.00;6.70;;;6.40;99.90;;;;;;5081606;28;20082;-70
2023/11/21 05:03:23;;;;;;;11.45;6.30;;;6.60;99.90;;;;;;5081679;28;20078;-70
2023/11/21 05:05:49;;;;;;;12.57;6.13;;;6.60;99.90;;;;;;5081675;28;20024;-73
2023/11/21 05:08:15;;;;;;;23.25;7.32;;;;;;;;;;5063572;28;20523;-70
2023/11/21 05:10:41;;;;;;;12.55;6.30;;;6.60;99.90;;;;;;5081619;28;20028;-71
2023/11/21 05:13:10;;;;;;;10.70;5.80;;;6.60;99.90;;;;;;5081331;28;20043;-70
2023/11/21 05:15:36;;;;;;;15.38;5.70;;;6.60;99.20;;;;;;5081420;28;20024;-70
2023/11/21 05:18:02;;;;;;;8.15;5.00;;;;;;;;;;5081443;28;20394;-70
2023/11/21 05:20:28;;;;;;;9.05;5.25;;;6.70;99.90;;;;;;5081685;28;20244;-68
2023/11/21 05:22:54;;;;;;;10.43;4.82;;;6.60;99.90;;;;;;5081473;28;20016;-70
2023/11/21 05:25:20;;;;;;;12.23;4.97;;;;;;;;;;5080946;28;20368;-71
2023/11/21 05:27:46;;;;;;;11.18;4.53;;;6.70;99.90;;;;;;5079883;28;20082;-71
2023/11/21 05:30:14;;;;;;;7.55;3.58;;;6.60;99.60;;;;;;5081004;28;20031;-71
2023/11/21 05:32:42;;;;;;;9.90;3.72;;;6.40;99.90;;;;;;5080764;28;20024;-72
2023/11/21 05:35:11;;;;;;;8.48;4.07;;;6.60;99.60;;;;;;5081207;28;20047;-71
2023/11/21 05:37:39;;;;;;;11.18;4.45;;;6.60;99.50;;;;;;5080796;28;20051;-71
2023/11/21 05:40:06;;;;;;;13.20;5.70;;;6.80;99.90;;;;;;5081255;28;20062;-72
2023/11/21 05:42:33;;;;;;;24.58;8.50;;;6.90;99.90;;;;;;5080730;28;20016;-71
2023/11/21 05:45:09;;;;;;;22.50;10.75;;;;;;;;;;5080747;28;20044;-72
2023/11/21 05:47:35;;;;;;;20.42;10.10;;;;;;;;;;5080279;28;20028;-74
2023/11/21 05:50:01;;;;;;;18.98;9.48;;;6.40;99.90;;;;;;5080554;28;20024;-73
2023/11/21 05:52:26;;;;;;;27.08;10.50;;;6.40;99.90;;;;;;5080583;28;20031;-74
2023/11/21 05:54:52;;;;;;;32.08;12.35;;;6.30;99.90;;;;;;5080539;28;20597;-74
2023/11/21 05:57:18;;;;;;;34.13;14.63;;;;;;;;;;5080801;28;20074;-73
2023/11/21 05:59:45;;;;;;;23.45;10.55;;;6.40;99.90;;;;;;5080751;28;20012;-73
2023/11/21 06:02:11;;;;;;;16.85;7.72;;;6.50;99.90;;;;;;5081346;28;20012;-74
2023/11/21 06:04:37;;;;;;;17.50;6.75;;;6.50;99.90;;;;;;5080833;28;20233;-74
2023/11/21 06:07:03;;;;;;;15.70;7.15;;;6.40;99.90;;;;;;5081005;28;20067;-74
2023/11/21 06:09:29;;;;;;;14.90;5.45;;;;;;;;;;5077433;28;20277;-74
2023/11/21 06:11:55;;;;;;;10.40;4.97;;;;;;;;;;5080039;28;20328;-74
2023/11/21 06:14:21;;;;;;;11.52;4.80;;;6.70;99.90;;;;;;5080011;28;20017;-74
2023/11/21 06:16:47;;;;;;;11.45;4.60;;;6.70;99.90;;;;;;5080443;28;20024;-74
2023/11/21 06:19:14;;;;;;;13.98;5.30;;;;;;;;;;5080373;28;20344;-74
2023/11/21 06:21:40;;;;;;;21.10;5.43;;;6.70;99.90;;;;;;5079787;28;20341;-74
2023/11/21 06:24:07;;;;;;;13.57;6.47;;;6.80;99.90;;;;;;5080819;28;20090;-74
2023/11/21 06:26:33;;;;;;;13.25;6.20;;;6.80;99.90;;;;;;5078962;28;20060;-74
2023/11/21 06:28:59;;;;;;;12.95;6.10;;;;;;;;;;5078045;28;20598;-74
2023/11/21 06:31:25;;;;;;;15.77;7.28;;;;;;;;;;5080084;28;20098;-74
2023/11/21 06:33:51;;;;;;;11.63;5.65;;;;;;;;;;5080759;28;20095;-74
2023/11/21 06:36:17;;;;;;;12.52;4.80;;;6.70;99.90;;;;;;5080231;28;20044;-74
2023/11/21 06:38:45;;;;;;;10.15;4.90;;;;;;;;;;5081048;28;20021;-73
2023/11/21 06:41:13;;;;;;;9.35;4.40;;;;;;;;;;5084791;28;20035;-74
2023/11/21 06:43:39;;;;;;;9.57;5.73;;;;;;;;;;5080840;28;20201;-74
2023/11/21 06:46:05;;;;;;;14.52;5.93;;;6.60;99.90;;;;;;5080490;28;20047;-75
2023/11/21 06:48:31;;;;;;;13.60;5.63;;;;;;;;;;5080353;28;20337;-74
2023/11/21 06:50:57;;;;;;;16.70;7.18;;;6.70;99.90;;;;;;5080314;28;20019;-74
2023/11/21 06:53:22;;;;;;;15.07;6.15;;;6.70;99.90;;;;;;5080364;28;20269;-73
2023/11/21 06:55:48;;;;;;;16.35;7.05;;;6.80;99.90;;;;;;5084326;28;20027;-74
2023/11/21 06:58:14;;;;;;;17.55;6.50;;;6.80;99.90;;;;;;5084437;28;20123;-74
2023/11/21 07:00:40;;;;;;;14.00;7.75;;;6.70;99.90;;;;;;5084314;28;20329;-74
2023/11/21 07:03:06;;;;;;;16.17;6.47;;;6.60;99.90;;;;;;5084704;28;20032;-74
2023/11/21 07:05:32;;;;;;;10.43;6.10;;;6.90;99.90;;;;;;5083256;28;20039;-73
2023/11/21 07:08:04;;;;;;;15.32;6.35;;;;;;;;;;5084473;28;20013;-75
2023/11/21 07:10:30;;;;;;;13.38;6.10;;;;;;;;;;5084721;28;20024;-74
2023/11/21 07:12:57;;;;;;;10.77;4.40;;;7.20;99.90;;;;;;5084749;28;20032;-74
2023/11/21 07:15:23;;;;;;;6.95;4.00;;;;;;;;;;5084877;28;20016;-74
2023/11/21 07:17:50;;;;;;;8.50;4.30;;;;;;;;;;5084791;28;20091;-75
2023/11/21 07:20:16;;;;;;;6.55;3.65;;;7.40;99.90;;;;;;5084693;28;20017;-75
2023/11/21 07:22:43;;;;;;;9.10;3.97;;;;;;;;;;5084441;28;20028;-76
2023/11/21 07:25:09;;;;;;;8.68;4.00;;;7.40;99.90;;;;;;5084274;28;20029;-75
2023/11/21 07:27:37;;;;;;;8.18;3.78;;;;;;;;;;5082886;28;20036;-74
2023/11/21 07:30:04;;;;;;;7.90;3.72;;;7.10;98.60;;;;;;5084046;28;20331;-75
2023/11/21 07:32:31;;;;;;;8.93;3.53;;;7.50;98.70;;;;;;5083559;28;20044;-74
2023/11/21 07:34:58;;;;;;;8.55;3.33;;;7.50;99.90;;;;;;5083643;28;20303;-74
2023/11/21 07:37:24;;;;;;;6.45;3.47;;;7.60;99.90;;;;;;5083486;28;20512;-74
2023/11/21 07:39:54;;;;;;;8.18;3.50;;;;;;;;;;5083362;28;20020;-74
2023/11/21 07:42:20;;;;;;;10.80;3.60;;;;;;;;;;5083214;28;20086;-74
2023/11/21 07:44:46;;;;;;;9.38;3.05;;;7.70;99.90;;;;;;5083305;28;20020;-74
2023/11/21 07:47:12;;;;;;;8.55;3.53;;;7.60;99.90;;;;;;5083108;28;20286;-73
2023/11/21 07:49:37;;;;;;;7.25;3.00;;;8.10;99.90;;;;;;5083073;28;20012;-74
2023/11/21 07:52:03;;;;;;;6.70;2.70;;;8.40;99.90;;;;;;5083419;28;20032;-74
2023/11/21 07:54:29;;;;;;;5.43;3.03;;;8.50;99.90;;;;;;5082993;28;20186;-74
2023/11/21 07:56:54;;;;;;;12.20;2.72;;;8.00;99.90;;;;;;5083075;28;20032;-73
2023/11/21 07:59:21;;;;;;;12.52;2.67;;;8.10;99.90;;;;;;5082883;28;20024;-74
2023/11/21 08:01:47;;;;;;;8.23;2.95;;;8.10;99.90;;;;;;5081632;28;20042;-75
2023/11/21 08:04:12;;;;;;;8.88;3.03;;;8.30;99.90;;;;;;5082169;28;20021;-74
2023/11/21 08:06:38;;;;;;;7.38;2.72;;;8.20;99.90;;;;;;5081944;28;20367;-73
2023/11/21 08:09:04;;;;;;;5.45;2.38;;;8.40;99.90;;;;;;5082909;28;20016;-74
2023/11/21 08:11:32;;;;;;;5.80;3.10;;;;;;;;;;5082813;28;20044;-74
2023/11/21 08:13:58;;;;;;;8.50;3.95;;;;;;;;;;5083088;28;20020;-74
2023/11/21 08:16:24;;;;;;;8.20;3.83;;;8.40;99.90;;;;;;5081697;28;20121;-74
2023/11/21 08:18:51;;;;;;;8.07;4.65;;;8.30;99.50;;;;;;5082896;28;20042;-74
2023/11/21 08:21:17;;;;;;;8.63;3.33;;;;;;;;;;5082780;28;20043;-73
2023/11/21 08:23:43;;;;;;;7.80;3.78;;;;;;;;;;5082470;28;20027;-74
2023/11/21 08:26:08;;;;;;;10.20;4.30;;;8.50;99.90;;;;;;5082325;28;20045;-75
2023/11/21 08:28:34;;;;;;;8.25;4.95;;;8.30;99.90;;;;;;5082416;28;20511;-73
2023/11/21 08:31:01;;;;;;;12.43;4.57;;;8.60;98.40;;;;;;5081017;28;20028;-74
2023/11/21 08:33:27;;;;;;;13.70;5.68;;;;;;;;;;5082239;28;20033;-74
2023/11/21 08:35:53;;;;;;;12.82;5.95;;;8.60;99.90;;;;;;5081117;28;20212;-73
2023/11/21 08:38:18;;;;;;;8.38;4.97;;;8.90;99.90;;;;;;5082454;28;20323;-73
2023/11/21 08:40:44;;;;;;;11.10;5.43;;;9.10;99.90;;;;;;5077793;28;20340;-74
2023/11/21 08:43:12;;;;;;;8.75;4.18;;;;;;;;;;5064668;28;20332;-74
2023/11/21 08:45:37;;;;;;;10.40;3.53;;;9.00;97.20;;;;;;5066033;28;20024;-74
2023/11/21 08:48:04;;;;;;;8.93;4.30;;;8.80;99.90;;;;;;5082166;28;20070;-74
2023/11/21 08:50:30;;;;;;;9.65;4.70;;;;;;;;;;5082607;28;20035;-74
2023/11/21 08:52:56;;;;;;;7.22;3.90;;;;;;;;;;5082128;28;20029;-73
2023/11/21 08:55:22;;;;;;;5.88;3.50;;;9.00;99.90;;;;;;5081998;28;20024;-74
2023/11/21 08:57:48;;;;;;;7.57;3.80;;;9.10;94.60;;;;;;5081868;28;20046;-74
2023/11/21 09:00:16;;;;;;;8.57;4.10;;;9.20;99.90;;;;;;5081803;28;20407;-74
2023/11/21 09:02:42;;;;;;;11.65;5.15;;;;;;;;;;5081743;28;20028;-73
2023/11/21 09:05:10;;;;;;;9.20;3.67;;;9.50;98.50;;;;;;5081878;28;20070;-74
2023/11/21 09:07:41;;;;;;;6.13;3.47;;;9.20;99.90;;;;;;5081684;28;20031;-74
2023/11/21 09:10:07;;;;;;;7.60;3.53;;;9.30;99.90;;;;;;5077759;28;20031;-74
2023/11/21 09:12:34;;;;;;;7.03;3.38;;;;;;;;;;5068820;28;20043;-73
2023/11/21 09:15:04;;;;;;;7.38;3.38;;;9.30;94.70;;;;;;5081585;28;20074;-73
2023/11/21 09:17:30;;;;;;;4.97;3.15;;;9.40;94.80;;;;;;5067599;28;20383;-75
2023/11/21 09:19:57;;;;;;;8.90;3.38;;;;;;;;;;5061496;28;20013;-74
2023/11/21 09:22:24;;;;;;;7.32;3.78;;;9.50;93.00;;;;;;5061303;28;20376;-75
2023/11/21 09:24:51;;;;;;;10.57;4.13;;;9.60;92.80;;;;;;5062052;28;20028;-74
2023/11/21 09:27:17;;;;;;;7.93;5.05;;;9.50;98.90;;;;;;5061025;28;20040;-74
2023/11/21 09:29:42;;;;;;;9.88;3.90;;;9.60;94.30;;;;;;5075468;28;20016;-73
2023/11/21 09:32:11;;;;;;;7.35;3.85;;;;;;;;;;5075408;28;20143;-74
2023/11/21 09:34:38;;;;;;;7.30;4.10;;;9.80;98.40;;;;;;5071480;28;20076;-75
2023/11/21 09:37:06;;;;;;;11.30;4.70;;;9.70;91.40;;;;;;5061682;28;20029;-75
2023/11/21 09:39:34;;;;;;;8.75;4.72;;;9.60;97.50;;;;;;5078643;28;20099;-74
2023/11/21 09:42:10;;;;;;;7.32;3.92;;;9.90;97.60;;;;;;5071198;28;20025;-75
2023/11/21 09:44:48;;;;;;;10.77;5.47;;;9.70;97.60;;;;;;5060832;28;20059;-74
2023/11/21 09:47:16;;;;;;;8.43;5.07;;;9.70;91.20;;;;;;5062094;28;20029;-74
2023/11/21 09:49:46;;;;;;;8.13;4.50;;;9.70;91.20;;;;;;5061870;28;20387;-74
2023/11/21 09:52:40;;;;;;;9.73;3.90;;;9.70;91.20;;;;;;5080925;28;20063;-74
2023/11/21 09:55:06;;;;;;;11.00;4.68;;;9.60;97.50;;;;;;5062407;28;20017;-74
2023/11/21 09:57:33;;;;;;;12.65;4.00;;;;;;;;;;5059385;28;20028;-74
2023/11/21 10:00:04;;;;;;;7.75;4.55;;;9.80;90.80;;;;;;5060704;28;20619;-74
2023/11/21 10:02:34;;;;;;;9.80;6.50;;;9.70;92.70;;;;;;5059468;28;20031;-74
2023/11/21 10:05:00;;;;;;;16.67;10.07;;;;;;;;;;5063005;28;20256;-74
2023/11/21 10:07:26;;;;;;;30.23;11.80;;;9.70;96.90;;;;;;5060552;28;20312;-74
2023/11/21 10:09:53;;;;;;;19.02;10.57;;;10.00;96.90;;;;;;5060467;28;20312;-73
2023/11/21 10:12:21;;;;;;;25.15;9.68;;;10.00;90.60;;;;;;5060293;28;20341;-73
2023/11/21 10:14:49;;;;;;;17.33;9.55;;;10.00;96.80;;;;;;5061944;28;20051;-70
2023/11/21 10:17:18;;;;;;;21.17;8.38;;;10.10;90.40;;;;;;5060228;28;20039;-71
2023/11/21 10:19:46;;;;;;;20.63;8.15;;;10.20;90.10;;;;;;5060167;28;20025;-70
2023/11/21 10:22:14;;;;;;;14.15;5.13;;;11.00;90.10;;;;;;5061272;28;20269;-71
2023/11/21 10:24:40;;;;;;;15.90;3.53;;;10.30;93.00;;;;;;5060220;28;20043;-71
2023/11/21 10:27:06;;;;;;;14.27;3.63;;;10.40;95.40;;;;;;5066727;28;20340;-70
2023/11/21 10:29:35;;;;;;;15.63;3.53;;;10.50;95.00;;;;;;5074377;28;20020;-70
2023/11/21 10:32:02;;;;;;;14.88;3.00;;;10.70;94.80;;;;;;5059318;28;20096;-70
2023/11/21 10:34:28;;;;;;;4.90;2.83;;;10.60;90.00;;;;;;5066327;28;20304;-69
2023/11/21 10:36:56;;;;;;;11.02;2.92;;;10.40;94.50;;;;;;5080037;28;20028;-71
2023/11/21 10:39:23;;;;;;;6.15;2.20;;;;;;;;;;5079019;28;20017;-70
2023/11/21 10:41:50;;;;;;;7.07;3.05;;;10.50;93.90;;;;;;5075050;28;20225;-70
2023/11/21 10:44:23;;;;;;;6.47;3.40;;;10.60;85.30;;;;;;5061413;28;20021;-70
2023/11/21 10:46:51;;;;;;;6.72;3.30;;;10.70;94.30;;;;;;5065919;28;20016;-70
2023/11/21 10:49:27;;;;;;;6.50;3.25;;;10.50;93.90;;;;;;5061233;28;20055;-71
2023/11/21 10:51:54;;;;;;;12.57;2.63;;;10.70;85.10;;;;;;5060205;28;20031;-71
2023/11/21 10:54:25;;;;;;;11.02;3.05;;;10.70;94.00;;;;;;5077016;28;20067;-71
2023/11/21 10:57:03;;;;;;;6.47;3.17;;;10.70;91.50;;;;;;5079943;28;20083;-70
2023/11/21 10:59:30;;;;;;;6.30;2.40;;;10.70;93.70;;;;;;5079742;28;20248;-71
2023/11/21 11:01:58;;;;;;;5.45;1.88;;;10.90;90.30;;;;;;5082554;28;20021;-69
2023/11/21 11:04:26;;;;;;;8.80;2.38;;;10.80;83.50;;;;;;5079820;28;20017;-71
2023/11/21 11:06:58;;;;;;;5.05;1.80;;;10.80;82.40;;;;;;5079877;28;20292;-71
2023/11/21 11:09:23;;;;;;;4.47;2.03;;;10.60;92.90;;;;;;5079439;28;20066;-71
2023/11/21 11:11:50;;;;;;;6.22;2.45;;;11.10;93.10;;;;;;5079197;28;20028;-71
2023/11/21 11:14:19;;;;;;;7.95;2.75;;;;;;;;;;5079481;28;20103;-71
2023/11/21 11:16:45;;;;;;;4.40;2.38;;;10.80;82.80;;;;;;5078104;28;20182;-71
2023/11/21 11:19:12;;;;;;;6.18;2.00;;;10.80;82.60;;;;;;5079651;28;20090;-70
2023/11/21 11:21:46;;;;;;;5.07;2.15;;;11.20;92.90;;;;;;5079257;28;20268;-70
2023/11/21 11:24:33;;;;;;;4.05;2.08;;;11.00;92.80;;;;;;5076145;28;20204;-70
2023/11/21 11:27:34;;;;;;;5.65;2.10;;;11.00;82.40;;;;;;5079023;28;20052;-70
2023/11/21 11:30:39;;;;;;;4.47;2.30;;;11.00;82.10;;;;;;5079456;28;20054;-70
2023/11/21 11:33:07;;;;;;;5.05;2.35;;;;;;;;;;5078166;28;20044;-70
2023/11/21 11:35:38;;;;;;;5.20;2.08;;;11.10;92.30;;;;;;5079583;28;20012;-71
2023/11/21 11:38:04;;;;;;;5.97;2.08;;;11.00;92.10;;;;;;5074439;28;20084;-71
2023/11/21 11:40:40;;;;;;;5.57;2.58;;;11.20;80.80;;;;;;5070968;28;20039;-71
2023/11/21 11:43:07;;;;;;;4.80;2.15;;;11.20;80.00;;;;;;5062825;28;20039;-69
2023/11/21 11:45:35;;;;;;;4.20;2.22;;;11.20;80.00;;;;;;5078163;28;20028;-69
2023/11/21 11:48:02;;;;;;;5.10;3.23;;;11.00;91.40;;;;;;5082717;28;20345;-71
2023/11/21 11:50:27;;;;;;;6.03;2.40;;;11.20;91.60;;;;;;5081572;28;20028;-71
2023/11/21 11:52:54;;;;;;;5.95;2.92;;;10.90;91.40;;;;;;5081849;28;20051;-71
2023/11/21 11:55:24;;;;;;;6.35;3.13;;;11.20;83.20;;;;;;5082426;28;20066;-70
2023/11/21 11:57:55;;;;;;;8.32;4.30;;;11.30;86.50;;;;;;5082423;28;20078;-70
2023/11/21 12:00:25;;;;;;;9.45;3.22;;;10.90;91.50;;;;;;5082770;28;20024;-72
2023/11/21 12:02:58;;;;;;;5.13;3.38;;;11.10;88.30;;;;;;5082877;28;20091;-72
2023/11/21 12:05:30;;;;;;;6.60;2.72;;;11.30;91.90;;;;;;5083048;28;20050;-70
2023/11/21 12:07:57;;;;;;;7.70;3.22;;;11.10;86.50;;;;;;5082960;28;20222;-71
2023/11/21 12:10:44;;;;;;;6.47;3.20;;;11.30;83.10;;;;;;5082745;28;20024;-70
2023/11/21 12:13:11;;;;;;;6.63;2.75;;;11.00;92.00;;;;;;5082732;28;20032;-70
2023/11/21 12:15:38;;;;;;;10.82;3.53;;;11.10;81.20;;;;;;5082490;28;20043;-71
2023/11/21 12:18:05;;;;;;;6.07;2.83;;;11.10;92.00;;;;;;5082475;28;20025;-71
2023/11/21 12:20:31;;;;;;;9.00;3.58;;;10.90;81.20;;;;;;5082636;28;20039;-70
2023/11/21 12:23:01;;;;;;;11.10;3.58;;;11.00;81.70;;;;;;5082514;28;20028;-70
2023/11/21 12:25:29;;;;;;;7.80;3.63;;;11.00;81.60;;;;;;5082173;28;20403;-70
2023/11/21 12:27:57;;;;;;;6.55;3.40;;;11.00;81.50;;;;;;5082445;28;20025;-72
2023/11/21 12:30:24;;;;;;;8.52;3.40;;;11.00;81.40;;;;;;5082508;28;20029;-70
2023/11/21 12:32:51;;;;;;;7.05;3.88;;;11.10;92.20;;;;;;5082433;28;20074;-70
2023/11/21 12:35:22;;;;;;;10.10;5.10;;;10.90;81.60;;;;;;5082430;28;20029;-75
2023/11/21 12:37:48;;;;;;;17.50;5.10;;;10.90;81.80;;;;;;5082396;28;20410;-70
2023/11/21 12:40:15;;;;;;;11.82;6.07;;;10.80;92.60;;;;;;5081981;28;20058;-72
2023/11/21 12:42:42;;;;;;;9.10;4.78;;;10.80;92.90;;;;;;5082261;28;20074;-71
2023/11/21 12:45:14;;;;;;;10.38;5.38;;;10.90;85.40;;;;;;5081671;28;20021;-70
2023/11/21 12:47:43;;;;;;;9.30;5.65;;;10.40;93.20;;;;;;5082005;28;20039;-71
2023/11/21 12:50:14;;;;;;;;;;;10.60;84.10;;;;;;5080426;28;20409;-69
2023/11/21 12:52:47;;;;;;;15.43;6.18;;;10.60;88.20;;;;;;5076984;28;20143;-70
2023/11/21 12:55:15;;;;;;;17.85;6.43;;;10.60;84.50;;;;;;5080157;28;20044;-71
2023/11/21 12:57:43;;;;;;;13.60;5.40;;;10.30;93.70;;;;;;5069228;28;20051;-71
2023/11/21 13:00:13;;;;;;;9.13;5.43;;;10.50;89.60;;;;;;5061842;28;20029;-70
2023/11/21 13:02:42;;;;;;;11.05;5.70;;;10.50;91.20;;;;;;5062024;28;20032;-70
2023/11/21 13:05:18;;;;;;;10.70;5.47;;;;;;;;;;5061871;28;20036;-70
2023/11/21 13:07:47;;;;;;;9.40;5.63;;;10.50;93.90;;;;;;5061724;28;20041;-71
2023/11/21 13:10:13;;;;;;;11.38;5.70;;;10.50;91.80;;;;;;5061713;28;20052;-71
2023/11/21 13:12:51;;;;;;;9.50;5.40;;;10.30;91.30;;;;;;5061005;28;20425;-71
2023/11/21 13:15:17;;;;;;;10.20;5.88;;;10.50;94.60;;;;;;5063215;28;20096;-71